首页
METAR-TAF:

METAR-TAF

机场 :

的里雅斯特 / Ronchi dei Legionari, 意大利

纬度: 45-49N, 经度: 013-29E, 海拔: 12米

当前天气观测

该预报发布于18分钟前的16:20 UTC
风速3节,风向东南,在东转东南之间变化
温度 7°C
湿度 93%
气压 1018 hPa
能見度: 6000
多云层高于4000英尺

METAR: LIPQ 081620Z 13003KT 110V180 6000 BKN040 07/06 Q1018

时间: 17:38 (16:38 UTC)

预报

该预报发布于5小时和38分钟前的11:00 UTC
预报有效从08日的 12点(UTC)到 09日的 12点(UTC)
风速4节,风向多变
能見度: 8000
多云层高于3000英尺
成为
从 08日的 18点(UTC)到 08日的 21点(UTC)
能見度: 2000
多云层高于500英尺
轻雾
成为
从 09日的 08点(UTC)到 09日的 10点(UTC)
能見度: 8000

TAF: LIPQ 081100Z 0812/0912 VRB04KT 8000 BKN030 BECMG 0818/0821 2000 BR BKN005 BECMG 0908/0910 8000

超过4000个机场的气象观测和天气预报(METAR&TAF报告)。

可查询的气象台以黄色和红色小点在地图上表示。

将鼠标移到小点上方,可查看气象台名称。

然后点击查看天气观测和预报。

如需切换地图:点击带黑十字的绿色按钮放大地图;点击带横线的绿色按钮缩小地图;或者点击绿色箭头查看邻近地区的地图。


METAR-TAF: